Time,TemperatureF,DewpointF,PressureIn,WindDirection,WindDirectionDegrees,WindSpeedMPH,WindSpeedGustMPH,Humidity,HourlyPrecipIn,Conditions,Clouds,dailyrainin,SolarRadiationWatts/m^2,SoftwareType,DateUTC
2013-07-29 00:01:00,64.0,57.0,-100.00,SSE,165,2.0,6.0,77,0.00,,,0.01,0.000000,,2013-07-29 04:01:00,
2013-07-29 00:22:00,64.0,57.0,-100.00,SSE,165,2.0,6.0,77,0.00,,,0.01,0.000000,,2013-07-29 04:22:00,
2013-07-29 00:33:00,64.0,57.0,-100.00,SSE,165,2.0,6.0,77,0.00,,,0.01,0.000000,,2013-07-29 04:33:00,
2013-07-29 00:43:00,64.0,57.0,-100.00,SSE,165,2.0,6.0,77,0.00,,,0.01,0.000000,,2013-07-29 04:43:00,
2013-07-29 00:53:00,64.0,57.0,-100.00,SSE,165,2.0,6.0,77,0.00,,,0.01,0.000000,,2013-07-29 04:53:00,
2013-07-29 01:01:00,61.0,55.0,-100.00,North,352,1.0,5.0,82,0.00,,,0.01,0.000000,,2013-07-29 05:01:00,
2013-07-29 01:32:00,61.0,55.0,-100.00,North,352,1.0,5.0,82,0.00,,,0.01,0.000000,,2013-07-29 05:32:00,
2013-07-29 01:43:00,61.0,55.0,-100.00,North,352,1.0,5.0,82,0.00,,,0.01,0.000000,,2013-07-29 05:43:00,
2013-07-29 01:53:00,61.0,55.0,-100.00,North,352,1.0,5.0,82,0.00,,,0.01,0.000000,,2013-07-29 05:53:00,
2013-07-29 02:01:00,61.0,53.0,-100.00,NE,48,1.0,7.0,75,0.00,,,0.01,0.000000,,2013-07-29 06:01:00,
2013-07-29 02:33:00,61.0,53.0,-100.00,NE,48,1.0,7.0,75,0.00,,,0.01,0.000000,,2013-07-29 06:33:00,
2013-07-29 02:43:00,61.0,53.0,-100.00,NE,48,1.0,7.0,75,0.00,,,0.01,0.000000,,2013-07-29 06:43:00,
2013-07-29 02:52:00,61.0,53.0,-100.00,NE,48,1.0,7.0,75,0.00,,,0.01,0.000000,,2013-07-29 06:52:00,
2013-07-29 03:01:00,60.0,55.0,-100.00,NE,55,1.0,4.0,84,0.00,,,0.01,0.000000,,2013-07-29 07:01:00,
2013-07-29 03:23:00,60.0,55.0,-100.00,NE,55,1.0,4.0,84,0.00,,,0.01,0.000000,,2013-07-29 07:23:00,
2013-07-29 03:33:00,60.0,55.0,-100.00,NE,55,1.0,4.0,84,0.00,,,0.01,0.000000,,2013-07-29 07:33:00,
2013-07-29 03:43:00,60.0,55.0,-100.00,NE,55,1.0,4.0,84,0.00,,,0.01,0.000000,,2013-07-29 07:43:00,
2013-07-29 03:53:00,60.0,55.0,-100.00,NE,55,1.0,4.0,84,0.00,,,0.01,0.000000,,2013-07-29 07:53:00,
2013-07-29 04:01:00,57.0,53.0,-100.00,SSW,198,2.0,5.0,88,0.00,,,0.01,0.000000,,2013-07-29 08:01:00,
2013-07-29 04:33:00,57.0,53.0,-100.00,SSW,198,2.0,5.0,88,0.00,,,0.01,0.000000,,2013-07-29 08:33:00,
2013-07-29 04:42:00,57.0,53.0,-100.00,SSW,198,2.0,5.0,88,0.00,,,0.01,0.000000,,2013-07-29 08:42:00,
2013-07-29 04:52:00,57.0,53.0,-100.00,SSW,198,2.0,5.0,88,0.00,,,0.01,0.000000,,2013-07-29 08:52:00,
2013-07-29 05:01:00,55.0,52.0,-100.00,North,356,1.0,4.0,90,0.00,,,0.00,0.000000,,2013-07-29 09:01:00,
2013-07-29 05:22:00,55.0,52.0,-100.00,North,356,1.0,4.0,90,0.00,,,0.00,0.000000,,2013-07-29 09:22:00,
2013-07-29 05:33:00,55.0,52.0,-100.00,North,356,1.0,4.0,90,0.00,,,0.00,0.000000,,2013-07-29 09:33:00,
2013-07-29 05:43:00,55.0,52.0,-100.00,North,356,1.0,4.0,90,0.00,,,0.00,0.000000,,2013-07-29 09:43:00,
2013-07-29 05:53:00,55.0,52.0,-100.00,North,356,1.0,4.0,90,0.00,,,0.00,0.000000,,2013-07-29 09:53:00,
2013-07-29 06:01:00,55.0,52.0,-100.00,WNW,303,0.0,4.0,90,0.00,,,0.00,0.000000,,2013-07-29 10:01:00,
2013-07-29 06:26:00,55.0,52.0,-100.00,WNW,303,0.0,4.0,90,0.00,,,0.00,0.000000,,2013-07-29 10:26:00,
2013-07-29 06:39:00,55.0,52.0,-100.00,WNW,303,0.0,4.0,90,0.00,,,0.00,0.000000,,2013-07-29 10:39:00,
2013-07-29 06:50:00,55.0,52.0,-100.00,WNW,303,0.0,4.0,90,0.00,,,0.00,0.000000,,2013-07-29 10:50:00,
2013-07-29 06:55:00,55.0,52.0,-100.00,WNW,303,0.0,4.0,90,0.00,,,0.00,0.000000,,2013-07-29 10:55:00,
2013-07-29 07:01:00,55.0,52.0,-100.00,SSE,168,2.0,4.0,89,0.00,,,-99.99,10.000000,,2013-07-29 11:01:00,
2013-07-29 07:38:00,55.0,52.0,-100.00,SSE,168,2.0,4.0,89,0.00,,,-99.99,10.000000,,2013-07-29 11:38:00,
2013-07-29 07:49:00,55.0,52.0,-100.00,SSE,168,2.0,4.0,89,0.00,,,-99.99,10.000000,,2013-07-29 11:49:00,
2013-07-29 07:59:00,55.0,52.0,-100.00,SSE,168,2.0,4.0,89,0.00,,,-99.99,10.000000,,2013-07-29 11:59:00,
2013-07-29 08:01:00,61.0,56.0,-100.00,ESE,105,1.0,4.0,84,0.00,,,0.00,106.000000,,2013-07-29 12:01:00,
2013-07-29 08:28:00,61.0,56.0,-100.00,ESE,105,1.0,4.0,84,0.00,,,0.00,106.000000,,2013-07-29 12:28:00,
2013-07-29 08:37:00,61.0,56.0,-100.00,ESE,105,1.0,4.0,84,0.00,,,0.00,106.000000,,2013-07-29 12:37:00,
2013-07-29 08:49:00,61.0,56.0,-100.00,ESE,105,1.0,4.0,84,0.00,,,0.00,106.000000,,2013-07-29 12:49:00,
2013-07-29 08:58:00,61.0,56.0,-100.00,ESE,105,1.0,4.0,84,0.00,,,0.00,106.000000,,2013-07-29 12:58:00,
2013-07-29 09:01:00,65.0,58.0,-100.00,West,270,2.0,6.0,77,0.00,,,0.00,404.000000,,2013-07-29 13:01:00,
2013-07-29 09:38:00,65.0,58.0,-100.00,West,270,2.0,6.0,77,0.00,,,0.00,404.000000,,2013-07-29 13:38:00,
2013-07-29 09:46:00,65.0,58.0,-100.00,West,270,2.0,6.0,77,0.00,,,0.00,404.000000,,2013-07-29 13:46:00,
2013-07-29 09:57:00,65.0,58.0,-100.00,West,270,2.0,6.0,77,0.00,,,0.00,404.000000,,2013-07-29 13:57:00,
2013-07-29 10:01:00,67.0,50.0,-100.00,NE,53,5.0,9.0,55,0.00,,,0.00,645.000000,,2013-07-29 14:01:00,
2013-07-29 10:37:00,67.0,50.0,-100.00,NE,53,5.0,9.0,55,0.00,,,0.00,645.000000,,2013-07-29 14:37:00,
2013-07-29 10:48:00,67.0,50.0,-100.00,NE,53,5.0,9.0,55,0.00,,,0.00,645.000000,,2013-07-29 14:48:00,
2013-07-29 10:58:00,67.0,50.0,-100.00,NE,53,5.0,9.0,55,0.00,,,0.00,645.000000,,2013-07-29 14:58:00,
2013-07-29 11:01:00,70.0,51.0,-100.00,ESE,119,3.0,10.0,51,0.00,,,0.00,846.000000,,2013-07-29 15:01:00,
2013-07-29 11:39:00,70.0,51.0,-100.00,ESE,119,3.0,10.0,51,0.00,,,0.00,846.000000,,2013-07-29 15:39:00,
2013-07-29 11:46:00,70.0,51.0,-100.00,ESE,119,3.0,10.0,51,0.00,,,0.00,846.000000,,2013-07-29 15:46:00,
2013-07-29 11:57:00,70.0,51.0,-100.00,ESE,119,3.0,10.0,51,0.00,,,0.00,846.000000,,2013-07-29 15:57:00,
2013-07-29 12:42:00,72.0,52.0,-100.00,NNE,27,4.0,7.0,50,0.00,,,0.00,986.000000,,2013-07-29 16:42:00,
2013-07-29 12:48:00,72.0,52.0,-100.00,NNE,27,4.0,7.0,50,0.00,,,0.00,986.000000,,2013-07-29 16:48:00,
2013-07-29 12:58:00,72.0,52.0,-100.00,NNE,27,4.0,7.0,50,0.00,,,0.00,986.000000,,2013-07-29 16:58:00,
2013-07-29 13:01:00,75.0,52.0,-100.00,NNW,348,3.0,9.0,44,0.00,,,0.00,1099.000000,,2013-07-29 17:01:00,
2013-07-29 14:00:00,75.0,52.0,-100.00,NNW,348,3.0,9.0,44,0.00,,,0.00,1099.000000,,2013-07-29 18:00:00,
2013-07-29 14:01:00,77.0,53.0,-100.00,SW,228,3.0,7.0,44,0.00,,,0.00,864.000000,,2013-07-29 18:01:00,
2013-07-29 14:28:00,77.0,53.0,-100.00,SW,228,3.0,7.0,44,0.00,,,0.00,864.000000,,2013-07-29 18:28:00,
2013-07-29 14:48:00,77.0,53.0,-100.00,SW,228,3.0,7.0,44,0.00,,,0.00,864.000000,,2013-07-29 18:48:00,
2013-07-29 15:00:00,77.0,53.0,-100.00,SW,228,3.0,7.0,44,0.00,,,0.00,864.000000,,2013-07-29 19:00:00,
2013-07-29 15:01:00,78.0,54.0,-100.00,WSW,238,3.0,7.0,44,0.00,,,0.00,941.000000,,2013-07-29 19:01:00,
2013-07-29 15:40:00,78.0,54.0,-100.00,WSW,238,3.0,7.0,44,0.00,,,0.00,941.000000,,2013-07-29 19:40:00,
2013-07-29 15:48:00,78.0,54.0,-100.00,WSW,238,3.0,7.0,44,0.00,,,0.00,941.000000,,2013-07-29 19:48:00,
2013-07-29 16:00:00,78.0,54.0,-100.00,WSW,238,3.0,7.0,44,0.00,,,0.00,941.000000,,2013-07-29 20:00:00,
2013-07-29 16:01:00,76.0,54.0,-100.00,South,173,2.0,7.0,47,0.00,,,0.00,702.000000,,2013-07-29 20:01:00,
2013-07-29 16:38:00,76.0,54.0,-100.00,South,173,2.0,7.0,47,0.00,,,0.00,702.000000,,2013-07-29 20:38:00,
2013-07-29 16:49:00,76.0,54.0,-100.00,South,173,2.0,7.0,47,0.00,,,0.00,702.000000,,2013-07-29 20:49:00,
2013-07-29 16:58:00,76.0,54.0,-100.00,South,173,2.0,7.0,47,0.00,,,0.00,702.000000,,2013-07-29 20:58:00,
2013-07-29 17:01:00,75.0,55.0,-100.00,WNW,287,2.0,5.0,50,0.00,,,0.00,492.000000,,2013-07-29 21:01:00,
2013-07-29 18:00:00,75.0,55.0,-100.00,WNW,287,2.0,5.0,50,0.00,,,0.00,492.000000,,2013-07-29 22:00:00,
2013-07-29 18:01:00,72.0,53.0,-100.00,NW,321,3.0,7.0,51,0.00,,,-99.99,428.000000,,2013-07-29 22:01:00,
2013-07-29 18:39:00,72.0,53.0,-100.00,NW,321,3.0,7.0,51,0.00,,,-99.99,428.000000,,2013-07-29 22:39:00,
2013-07-29 18:48:00,72.0,53.0,-100.00,NW,321,3.0,7.0,51,0.00,,,-99.99,428.000000,,2013-07-29 22:48:00,
2013-07-29 18:57:00,72.0,53.0,-100.00,NW,321,3.0,7.0,51,0.00,,,-99.99,428.000000,,2013-07-29 22:57:00,
2013-07-29 19:01:00,69.0,52.0,-100.00,NW,312,3.0,6.0,54,0.00,,,0.00,185.000000,,2013-07-29 23:01:00,
2013-07-29 19:36:00,69.0,52.0,-100.00,NW,312,3.0,6.0,54,0.00,,,0.00,185.000000,,2013-07-29 23:36:00,
2013-07-29 19:58:00,69.0,52.0,-100.00,NW,312,3.0,6.0,54,0.00,,,0.00,185.000000,,2013-07-29 23:58:00,
2013-07-29 20:01:00,66.0,52.0,-100.00,NW,316,3.0,8.0,60,0.00,,,0.00,44.000000,,2013-07-30 00:01:00,
2013-07-29 20:35:00,66.0,52.0,-100.00,NW,316,3.0,8.0,60,0.00,,,0.00,44.000000,,2013-07-30 00:35:00,
2013-07-29 20:51:00,66.0,52.0,-100.00,NW,316,3.0,8.0,60,0.00,,,0.00,44.000000,,2013-07-30 00:51:00,
2013-07-29 21:01:00,66.0,50.0,-100.00,NW,320,4.0,11.0,56,0.00,,,0.00,5.000000,,2013-07-30 01:01:00,
2013-07-29 21:38:00,66.0,50.0,-100.00,NW,320,4.0,11.0,56,0.00,,,0.00,5.000000,,2013-07-30 01:38:00,
2013-07-29 21:47:00,66.0,50.0,-100.00,NW,320,4.0,11.0,56,0.00,,,0.00,5.000000,,2013-07-30 01:47:00,
2013-07-29 22:01:00,65.0,50.0,-100.00,NNW,337,3.0,9.0,59,0.00,,,0.00,0.000000,,2013-07-30 02:01:00,
2013-07-29 22:39:00,65.0,50.0,-100.00,NNW,337,3.0,9.0,59,0.00,,,0.00,0.000000,,2013-07-30 02:39:00,
2013-07-29 22:57:00,65.0,50.0,-100.00,NNW,337,3.0,9.0,59,0.00,,,0.00,0.000000,,2013-07-30 02:57:00,
2013-07-29 23:01:00,64.0,49.0,-100.00,NNW,343,2.0,9.0,59,0.00,,,0.00,0.000000,,2013-07-30 03:01:00,
2013-07-29 23:27:00,64.0,49.0,-100.00,NNW,343,2.0,9.0,59,0.00,,,0.00,0.000000,,2013-07-30 03:27:00,
2013-07-29 23:36:00,64.0,49.0,-100.00,NNW,343,2.0,9.0,59,0.00,,,0.00,0.000000,,2013-07-30 03:36:00,
2013-07-29 23:49:00,64.0,49.0,-100.00,NNW,343,2.0,9.0,59,0.00,,,0.00,0.000000,,2013-07-30 03:49:00,
2013-07-29 23:56:00,64.0,49.0,-100.00,NNW,343,2.0,9.0,59,0.00,,,0.00,0.000000,,2013-07-30 03:56:00,